Knoxville, TN (37915)

9:11 PM EDT on October 25, 2014 (GMT -0400)
North Knoxville | Change Station
CLOSE
Current Station
Personal Weather Station
Location: Knoxville, TN
Elevation: 988 ft
Nearby Weather Stations

Elev 988 ft 36.01 °N, 83.93 °W | Updated 5 seconds ago

Clear
Clear
53.8 °F
Feels Like 53.8 °F
N
0.0
Wind Variable Wind from West

Today
High -- | Low -- °F
--% Chance of Precip.
Yesterday
High -- | Low -- °F
Precip. -- in
7:51 AM 6:47 PM
Waxing Crescent, 5% visible
Pressure 30.02 in
Visibility 10.0 miles
Clouds Mostly Cloudy 3700 ft
Dew Point 49 °F
Humidity 84%
Rainfall 0.00 in
Snow Depth Not available.
UV 0 out of 12
Pollen .80 out of 12
Ozone Good
PM2.5 Moderate
Flu Activity No Activity
METAR KTYS 260053Z 21003KT 10SM BKN037 17/10 A3003 RMK AO2 SLP165 T01670100

More Conditions Fewer Conditions

Pressure 30.02 in
Visibility 10.0 miles
Clouds Mostly Cloudy 3700 ft
Dew Point 49 °F
Humidity 84%
Rainfall 0.00 in
Snow Depth Not available.
UV 0 out of 12
Pollen .80 out of 12
Ozone Good
PM2.5 Moderate
Flu Activity No Activity
METAR KTYS 260053Z 21003KT 10SM BKN037 17/10 A3003 RMK AO2 SLP165 T01670100

More Conditions Fewer Conditions

10-Day Weather Forecast

Almanac

Astronomy

Oct. 25, 2014 Rise Set
Actual Time 7:51 AM EDT 6:47 PM EDT
Civil Twilight 7:25 AM EDT 7:13 PM EDT
Nautical Twilight 6:55 AM EDT 7:43 PM EDT
Astronomical Twilight 6:25 AM EDT 8:13 PM EDT
Moon 9:26 AM EDT (10/25) 8:12 PM EDT (10/25)
Length of Visible Light 11h 48m
Length of Day
10h 56m
Tomorrow will be 2m 6s shorter.
Waxing Crescent, 5% of the Moon is Illuminated
Today
Waxing Crescent
Oct 30
First Quarter
Nov 6
Full
Nov 14
Last Quarter
Nov 22
New

Today's Extremes

State Highs State Lows

Community

WunderPhotos

Upload Photos

1,765,058 photos uploaded!

Nearby

Air Quality

  Air Quality AQ Index Pollutant
Yesterday Good
OZONE
Yesterday Good
PM2.5
Current Moderate
PM2.5
Current Good
OZONE
Saturday Moderate
PM2.5
Saturday Good
OZONE
Sunday Moderate
PM2.5
Sunday Good
OZONE
Monday Moderate
PM2.5
Monday Good
OZONE

Snow Depth

Station Depth Elevation
No new snow has been reported.

Earthquake Activity

City Distance Mag. Time & Date
No recent earthquake activity has been reported nearby.
Minimum magnitude displayed is 2.5.

Coastal Water Temperatures

Place Temperature
No Stations Reporting

Nearby Weather Stations